Time;durP1;ratioP1;P1;durP2;ratioP2;P2;SDS_P1;SDS_P2;PMS_P1;PMS_P2;Temp;Humidity;BMP_temperature;BMP_pressure;BME280_temperature;BME280_humidity;BME280_pressure;Samples;Min_cycle;Max_cycle;Signal;HPM_P1;HPM_P2
2021/07/04 00:00:58;;;;;;;2.13;1.10;;;26.90;41.00;;;;;;20913753;28;20041;-66
2021/07/04 00:11:05;;;;;;;1.63;0.98;;;26.80;41.20;;;;;;20913672;28;20055;-64
2021/07/04 00:21:09;;;;;;;1.40;0.90;;;26.70;41.30;;;;;;20926039;28;20110;-58
2021/07/04 00:31:12;;;;;;;5.20;3.30;;;26.60;41.50;;;;;;20924239;28;20063;-66
2021/07/04 00:41:15;;;;;;;4.07;2.22;;;26.40;41.70;;;;;;20924202;28;20049;-67
2021/07/04 00:51:18;;;;;;;1.95;1.10;;;26.30;41.90;;;;;;20905431;28;20106;-68
2021/07/04 01:01:21;;;;;;;2.45;1.40;;;26.20;42.30;;;;;;20922634;28;20075;-62
2021/07/04 01:11:25;;;;;;;1.92;1.20;;;26.10;42.90;;;;;;20922106;28;20481;-68
2021/07/04 01:21:33;;;;;;;1.65;1.20;;;26.00;43.20;;;;;;20920945;28;20493;-69
2021/07/04 01:31:41;;;;;;;2.20;1.35;;;26.00;43.50;;;;;;20920926;28;20143;-65
2021/07/04 01:41:50;;;;;;;3.40;1.65;;;25.90;43.90;;;;;;20919490;28;20051;-68
2021/07/04 01:52:01;;;;;;;2.07;1.17;;;25.60;44.50;;;;;;20902341;28;20560;-66
2021/07/04 02:02:08;;;;;;;2.70;1.30;;;25.40;44.70;;;;;;20917812;28;20053;-66
2021/07/04 02:12:23;;;;;;;3.75;1.85;;;25.30;45.30;;;;;;20916529;28;20045;-67
2021/07/04 02:22:36;;;;;;;2.15;1.55;;;25.20;45.40;;;;;;20915834;28;20076;-59
2021/07/04 02:32:44;;;;;;;1.77;1.20;;;25.10;45.70;;;;;;20913967;28;20064;-64
2021/07/04 02:42:53;;;;;;;4.28;1.25;;;25.00;45.80;;;;;;20914678;28;20064;-58
2021/07/04 02:53:05;;;;;;;1.38;0.90;;;24.90;45.60;;;;;;20913594;28;20381;-59
2021/07/04 03:03:16;;;;;;;;;;;24.90;45.50;;;;;;20913548;28;20110;-67
2021/07/04 03:13:26;;;;;;;4.10;0.90;;;24.70;45.20;;;;;;20912419;28;19921;-66
2021/07/04 03:23:38;;;;;;;3.15;1.02;;;24.60;45.30;;;;;;20911771;28;20462;-56
2021/07/04 03:33:47;;;;;;;1.52;0.85;;;24.50;45.00;;;;;;20911247;28;20141;-56
2021/07/04 03:43:59;;;;;;;2.58;1.35;;;24.30;44.40;;;;;;20911385;28;20055;-58
2021/07/04 03:54:07;;;;;;;2.53;1.10;;;24.20;44.30;;;;;;20928098;28;20507;-57
2021/07/04 04:04:16;;;;;;;2.72;1.10;;;24.20;43.90;;;;;;20926851;28;20048;-67
2021/07/04 04:14:25;;;;;;;1.98;0.88;;;24.20;43.60;;;;;;20927440;28;20045;-66
2021/07/04 04:24:34;;;;;;;2.58;1.00;;;24.10;43.60;;;;;;20926165;28;20057;-68
2021/07/04 04:34:47;;;;;;;4.30;1.20;;;23.90;43.70;;;;;;20924845;28;20059;-67
2021/07/04 04:45:05;;;;;;;1.30;0.88;;;23.80;43.90;;;;;;20924254;28;20455;-69
2021/07/04 04:55:21;;;;;;;1.60;1.10;;;23.70;44.10;;;;;;20924107;28;20539;-66
2021/07/04 05:05:28;;;;;;;2.85;1.25;;;23.50;44.60;;;;;;20928037;28;20084;-66
2021/07/04 05:15:31;;;;;;;3.08;1.17;;;23.50;45.20;;;;;;20938146;28;20056;-64
2021/07/04 05:25:40;;;;;;;3.22;1.50;;;23.40;45.90;;;;;;20909565;28;20452;-63
2021/07/04 05:35:45;;;;;;;1.80;1.10;;;23.10;47.00;;;;;;20920397;28;20461;-68
2021/07/04 05:45:50;;;;;;;2.78;1.27;;;23.00;47.90;;;;;;20902912;28;20044;-66
2021/07/04 05:55:58;;;;;;;3.35;1.20;;;22.90;48.60;;;;;;20918184;28;20489;-58
2021/07/04 06:06:03;;;;;;;2.40;1.38;;;23.10;49.90;;;;;;20900158;28;20053;-56
2021/07/04 06:16:07;;;;;;;1.70;1.20;;;23.00;50.40;;;;;;20915488;28;20100;-62
2021/07/04 06:26:13;;;;;;;2.42;1.40;;;23.10;49.10;;;;;;20916166;28;20056;-60
2021/07/04 06:36:17;;;;;;;2.95;1.40;;;23.20;48.20;;;;;;20914496;28;20092;-68
2021/07/04 06:46:23;;;;;;;1.73;1.27;;;23.30;47.70;;;;;;20914360;28;20055;-65
2021/07/04 06:56:26;;;;;;;2.53;1.30;;;23.40;47.60;;;;;;20913597;28;20481;-67
2021/07/04 07:06:28;;;;;;;2.27;1.37;;;23.80;46.80;;;;;;20912985;28;20404;-67
2021/07/04 07:16:30;;;;;;;2.30;1.30;;;24.60;45.10;;;;;;20912238;28;20048;-67
2021/07/04 07:26:32;;;;;;;2.67;1.60;;;25.30;43.40;;;;;;20911639;28;20049;-68
2021/07/04 07:36:34;;;;;;;2.35;1.48;;;26.10;41.50;;;;;;20911447;28;20485;-58
2021/07/04 07:46:36;;;;;;;1.67;1.30;;;26.60;40.30;;;;;;20911904;28;20082;-66
2021/07/04 07:56:38;;;;;;;3.90;1.60;;;27.20;39.40;;;;;;20912479;28;20447;-61
2021/07/04 08:06:40;;;;;;;2.45;1.38;;;27.70;38.20;;;;;;20910842;28;20476;-68
2021/07/04 08:16:42;;;;;;;2.25;1.20;;;28.00;37.20;;;;;;20910795;28;20057;-67
2021/07/04 08:26:44;;;;;;;3.47;1.35;;;28.40;36.80;;;;;;20910125;28;20051;-59
2021/07/04 08:36:48;;;;;;;1.90;1.20;;;28.90;35.60;;;;;;20918172;28;20075;-64
2021/07/04 08:46:54;;;;;;;2.72;1.20;;;29.20;34.80;;;;;;20923875;28;20170;-69
2021/07/04 08:56:56;;;;;;;2.20;1.30;;;29.60;34.30;;;;;;20923897;28;20053;-59
2021/07/04 09:07:00;;;;;;;3.05;0.98;;;30.00;32.20;;;;;;20922768;28;20462;-66
2021/07/04 09:17:05;;;;;;;2.17;1.10;;;30.00;31.30;;;;;;20921859;28;20057;-64
2021/07/04 09:27:09;;;;;;;3.58;2.25;;;30.10;29.40;;;;;;20920999;28;20049;-62
2021/07/04 09:37:10;;;;;;;2.60;1.10;;;30.00;30.20;;;;;;20921123;28;20048;-68
2021/07/04 09:47:18;;;;;;;2.47;1.27;;;30.30;29.90;;;;;;20922902;28;20057;-66
2021/07/04 09:57:21;;;;;;;3.03;1.20;;;30.50;29.30;;;;;;20918945;28;20053;-57
2021/07/04 10:07:32;;;;;;;2.03;1.10;;;30.60;27.50;;;;;;20917530;28;20041;-68
2021/07/04 10:17:36;;;;;;;1.30;0.70;;;30.80;25.90;;;;;;20917662;28;20049;-67
2021/07/04 10:27:40;;;;;;;1.90;0.80;;;30.70;24.90;;;;;;20916194;28;20049;-68
2021/07/04 10:37:41;;;;;;;2.50;0.80;;;30.70;23.80;;;;;;20915381;28;20505;-68
2021/07/04 10:47:45;;;;;;;1.73;1.15;;;30.90;22.40;;;;;;20914637;28;20049;-67
2021/07/04 10:57:50;;;;;;;2.50;1.10;;;30.90;21.90;;;;;;20913320;28;20076;-67
2021/07/04 11:07:55;;;;;;;2.25;0.80;;;31.10;22.90;;;;;;20914537;28;20059;-69
2021/07/04 11:17:57;;;;;;;1.85;1.10;;;31.20;20.70;;;;;;20913958;28;20092;-70
2021/07/04 11:28:18;;;;;;;1.92;0.90;;;31.20;21.20;;;;;;20932894;28;20045;-59
2021/07/04 11:38:23;;;;;;;2.03;0.90;;;31.10;21.70;;;;;;20896853;28;20052;-71
2021/07/04 11:48:46;;;;;;;3.28;1.40;;;31.40;20.50;;;;;;20894393;28;20528;-60
2021/07/04 11:58:47;;;;;;;4.65;2.25;;;31.50;20.70;;;;;;20912413;28;20071;-66
2021/07/04 12:08:54;;;;;;;2.55;0.80;;;31.30;21.40;;;;;;20917447;28;20409;-66
2021/07/04 12:18:55;;;;;;;1.88;1.17;;;31.50;22.90;;;;;;20926271;28;20061;-68
2021/07/04 12:29:04;;;;;;;2.17;1.15;;;31.50;21.80;;;;;;20925398;28;20132;-65
2021/07/04 12:39:09;;;;;;;4.50;2.65;;;31.60;20.90;;;;;;20924523;28;20101;-67
2021/07/04 12:49:14;;;;;;;1.60;0.98;;;31.60;21.40;;;;;;20924148;28;20049;-66
2021/07/04 12:59:32;;;;;;;4.55;1.00;;;31.80;21.80;;;;;;20923347;28;20087;-67
2021/07/04 13:09:35;;;;;;;1.60;1.00;;;31.90;21.80;;;;;;20922586;28;20041;-59
2021/07/04 13:19:39;;;;;;;1.90;0.80;;;31.60;22.80;;;;;;20920943;28;20536;-67
2021/07/04 13:29:41;;;;;;;3.60;2.47;;;31.80;23.20;;;;;;20920621;28;20077;-58
2021/07/04 13:40:12;;;;;;;1.95;0.95;;;31.80;23.70;;;;;;20920108;28;20049;-68
2021/07/04 13:50:13;;;;;;;2.40;1.35;;;32.10;24.10;;;;;;20914174;28;20041;-58
2021/07/04 14:00:16;;;;;;;3.08;1.70;;;32.20;25.60;;;;;;20919270;28;20090;-68
2021/07/04 14:10:17;;;;;;;3.97;1.90;;;32.30;26.10;;;;;;20918759;28;20049;-60
2021/07/04 14:20:20;;;;;;;2.83;1.30;;;32.40;26.40;;;;;;20917252;28;20497;-65
2021/07/04 14:30:24;;;;;;;2.08;1.42;;;32.30;26.40;;;;;;20897824;28;20409;-66
2021/07/04 14:40:26;;;;;;;1.95;1.30;;;32.40;25.90;;;;;;20915452;28;20088;-61
2021/07/04 14:50:27;;;;;;;1.70;1.02;;;32.50;26.20;;;;;;20915214;28;20048;-67
2021/07/04 15:00:29;;;;;;;1.45;0.93;;;32.50;25.80;;;;;;20913927;28;20048;-61
2021/07/04 15:10:30;;;;;;;2.22;1.20;;;32.30;26.10;;;;;;20914152;28;20080;-59
2021/07/04 15:20:31;;;;;;;3.75;2.80;;;32.50;25.60;;;;;;20913091;28;20051;-59
2021/07/04 15:30:33;;;;;;;2.60;2.15;;;32.60;25.50;;;;;;20913058;28;20057;-69
2021/07/04 15:40:37;;;;;;;3.05;1.90;;;32.40;25.40;;;;;;20914873;28;20063;-67
2021/07/04 15:50:38;;;;;;;2.80;1.55;;;32.50;25.40;;;;;;20929665;28;20072;-68
2021/07/04 16:00:42;;;;;;;2.33;1.60;;;32.40;25.60;;;;;;20927951;28;20159;-69
2021/07/04 16:10:43;;;;;;;2.35;1.40;;;32.60;25.60;;;;;;20927966;28;20056;-65
2021/07/04 16:20:45;;;;;;;3.90;3.08;;;32.60;25.20;;;;;;20926822;28;20102;-68
2021/07/04 16:30:47;;;;;;;2.25;1.63;;;32.70;24.80;;;;;;20908472;28;20088;-68
2021/07/04 16:40:49;;;;;;;5.68;1.85;;;32.60;25.10;;;;;;20926344;28;20158;-67
2021/07/04 16:50:51;;;;;;;1.55;0.93;;;32.60;24.90;;;;;;20925015;28;20061;-70
2021/07/04 17:00:53;;;;;;;4.40;1.27;;;32.40;25.00;;;;;;20906025;28;20464;-71
2021/07/04 17:10:56;;;;;;;2.30;1.40;;;32.40;25.30;;;;;;20924318;28;20095;-68
2021/07/04 17:20:59;;;;;;;3.58;1.42;;;32.30;25.40;;;;;;20922633;28;20053;-69
2021/07/04 17:31:01;;;;;;;3.33;1.50;;;32.50;25.20;;;;;;20920893;28;20041;-69
2021/07/04 17:41:03;;;;;;;3.03;1.95;;;32.30;25.50;;;;;;20921940;28;20495;-65
2021/07/04 17:51:06;;;;;;;8.48;4.85;;;32.20;26.00;;;;;;20919932;28;20041;-67
2021/07/04 18:01:08;;;;;;;2.08;1.50;;;32.10;26.40;;;;;;20920517;28;20052;-69
2021/07/04 18:11:09;;;;;;;3.25;1.20;;;32.10;26.50;;;;;;20930602;28;20406;-63
2021/07/04 18:21:12;;;;;;;2.10;1.10;;;31.90;26.90;;;;;;20938467;28;20053;-66
2021/07/04 18:31:14;;;;;;;2.28;1.20;;;31.90;27.00;;;;;;20920330;28;20075;-60
2021/07/04 18:41:16;;;;;;;3.13;1.20;;;31.80;27.10;;;;;;20897640;28;20110;-68
2021/07/04 18:51:18;;;;;;;2.72;1.02;;;31.60;27.30;;;;;;20915246;28;20049;-69
2021/07/04 19:01:20;;;;;;;1.30;0.95;;;31.50;27.80;;;;;;20896157;28;20048;-68
2021/07/04 19:11:22;;;;;;;1.48;0.95;;;31.70;27.20;;;;;;20913152;28;20053;-69
2021/07/04 19:21:24;;;;;;;3.33;1.52;;;31.30;28.20;;;;;;20912754;28;20571;-68
2021/07/04 19:31:26;;;;;;;3.90;1.40;;;31.00;28.60;;;;;;20912420;28;20056;-70
2021/07/04 19:41:27;;;;;;;4.57;1.30;;;30.80;29.20;;;;;;20915414;28;20425;-70
2021/07/04 19:51:29;;;;;;;3.28;1.42;;;30.60;29.80;;;;;;20922096;28;20099;-70
2021/07/04 20:01:31;;;;;;;3.55;1.10;;;30.40;30.30;;;;;;20894445;28;20053;-68
2021/07/04 20:11:34;;;;;;;4.00;1.83;;;30.20;31.10;;;;;;20911843;28;20140;-69
2021/07/04 20:21:36;;;;;;;1.92;1.27;;;30.10;31.40;;;;;;20910295;28;20087;-67
2021/07/04 20:31:39;;;;;;;7.28;5.50;;;29.90;31.80;;;;;;20918366;28;20477;-68
2021/07/04 20:41:41;;;;;;;2.00;1.60;;;29.70;32.40;;;;;;20925341;28;20041;-68
2021/07/04 20:51:43;;;;;;;4.95;3.15;;;29.50;32.80;;;;;;20925070;28;20053;-71
2021/07/04 21:01:45;;;;;;;2.83;2.10;;;29.30;33.30;;;;;;20925212;28;20048;-60
2021/07/04 21:11:47;;;;;;;4.35;3.40;;;29.10;33.60;;;;;;20922121;28;20057;-66
2021/07/04 21:21:49;;;;;;;3.25;1.35;;;29.10;33.90;;;;;;20921833;28;20056;-67
2021/07/04 21:31:50;;;;;;;2.58;1.60;;;28.90;34.70;;;;;;20920905;28;20049;-65
2021/07/04 21:41:52;;;;;;;2.35;1.73;;;28.70;35.30;;;;;;20920110;28;20049;-69
2021/07/04 21:51:54;;;;;;;3.08;1.52;;;28.50;35.70;;;;;;20921578;28;20091;-66
2021/07/04 22:01:56;;;;;;;2.30;1.73;;;28.30;36.00;;;;;;20919106;28;20143;-66
2021/07/04 22:11:57;;;;;;;39.20;35.17;;;28.20;36.40;;;;;;20918358;28;20076;-64
2021/07/04 22:21:59;;;;;;;8.63;6.22;;;28.00;36.80;;;;;;20916946;28;20102;-69
2021/07/04 22:32:02;;;;;;;3.03;1.52;;;27.90;37.20;;;;;;20916414;28;20052;-67
2021/07/04 22:42:04;;;;;;;4.45;1.65;;;27.70;37.60;;;;;;20916791;28;20049;-67
2021/07/04 22:52:06;;;;;;;3.60;1.95;;;27.50;38.00;;;;;;20915092;28;20140;-70
2021/07/04 23:02:11;;;;;;;2.85;1.88;;;27.40;38.40;;;;;;20915755;28;20056;-69
2021/07/04 23:12:12;;;;;;;4.22;1.88;;;27.30;38.90;;;;;;20896481;28;20084;-68
2021/07/04 23:22:14;;;;;;;3.38;1.60;;;27.10;39.50;;;;;;20914017;28;20353;-70
2021/07/04 23:32:16;;;;;;;2.25;1.30;;;27.00;40.10;;;;;;20913501;28;20056;-69
2021/07/04 23:42:18;;;;;;;5.82;2.53;;;26.70;40.80;;;;;;20913069;28;20045;-67
2021/07/04 23:52:20;;;;;;;4.95;1.60;;;26.60;42.10;;;;;;20912062;28;20084;-68
